createdAt,value
2023-05-14T00:01:42.267Z,11.19
2023-05-14T00:03:43.870Z,11.13
2023-05-14T00:05:45.434Z,11.09
2023-05-14T00:07:46.864Z,11.14
2023-05-14T00:09:48.281Z,11.11
2023-05-14T00:11:49.842Z,11.02
2023-05-14T00:13:51.270Z,11.06
2023-05-14T00:15:52.702Z,10.68
2023-05-14T00:17:54.474Z,11.00
2023-05-14T00:19:55.903Z,10.92
2023-05-14T00:21:57.372Z,10.96
2023-05-14T00:23:59.046Z,10.81
2023-05-14T00:26:00.549Z,10.97
2023-05-14T00:28:02.013Z,10.81
2023-05-14T00:30:05.568Z,10.79
2023-05-14T00:32:07.302Z,10.70
2023-05-14T00:34:08.700Z,10.68
2023-05-14T00:36:10.265Z,10.71
2023-05-14T00:38:11.704Z,10.73
2023-05-14T00:40:13.215Z,10.69
2023-05-14T00:42:14.786Z,10.71
2023-05-14T00:44:16.164Z,10.80
2023-05-14T00:46:17.734Z,10.83
2023-05-14T00:48:20.692Z,10.77
2023-05-14T00:50:22.975Z,10.67
2023-05-14T00:52:25.098Z,10.66
2023-05-14T00:54:27.989Z,10.56
2023-05-14T00:56:29.521Z,10.59
2023-05-14T00:58:31.159Z,10.54
2023-05-14T01:00:32.892Z,10.59
2023-05-14T01:02:34.516Z,10.47
2023-05-14T01:04:36.157Z,10.30
2023-05-14T01:06:40.532Z,10.41
2023-05-14T01:09:08.900Z,10.43
2023-05-14T01:11:17.386Z,10.48
2023-05-14T01:13:27.554Z,10.33
2023-05-14T01:15:31.552Z,10.43
2023-05-14T01:17:38.498Z,10.38
2023-05-14T01:19:42.422Z,10.37
2023-05-14T01:21:43.878Z,10.33
2023-05-14T01:23:45.251Z,10.07
2023-05-14T01:25:47.375Z,10.17
2023-05-14T01:27:51.494Z,10.28
2023-05-14T01:30:29.312Z,10.28
2023-05-14T01:32:31.667Z,10.22
2023-05-14T01:34:35.365Z,10.11
2023-05-14T01:36:37.069Z,10.13
2023-05-14T01:38:39.119Z,10.14
2023-05-14T01:40:41.731Z,10.16
2023-05-14T01:42:44.481Z,10.17
2023-05-14T01:44:46.159Z,10.12
2023-05-14T01:46:47.565Z,10.20
2023-05-14T01:48:48.995Z,10.15
2023-05-14T01:50:50.485Z,10.00
2023-05-14T01:52:51.926Z,9.96
2023-05-14T01:54:53.383Z,10.03
2023-05-14T01:56:55.018Z,9.96
2023-05-14T01:58:56.410Z,9.95
2023-05-14T02:00:58.195Z,9.95
2023-05-14T02:02:59.758Z,9.87
2023-05-14T02:05:01.220Z,9.81
2023-05-14T02:07:02.617Z,9.85
2023-05-14T02:09:05.125Z,9.83
2023-05-14T02:11:06.580Z,9.79
2023-05-14T02:13:07.974Z,9.69
2023-05-14T02:15:09.911Z,9.55
2023-05-14T02:17:11.728Z,9.74
2023-05-14T02:19:13.206Z,9.70
2023-05-14T02:21:14.785Z,9.85
2023-05-14T02:23:16.173Z,9.86
2023-05-14T02:25:17.604Z,9.89
2023-05-14T02:27:19.808Z,10.05
2023-05-14T02:29:21.218Z,10.05
2023-05-14T02:31:22.691Z,10.06
2023-05-14T02:33:25.081Z,10.02
2023-05-14T02:35:26.487Z,10.05
2023-05-14T02:37:27.904Z,10.10
2023-05-14T02:39:29.546Z,10.12
2023-05-14T02:41:30.932Z,10.10
2023-05-14T02:43:32.321Z,10.14
2023-05-14T02:45:33.827Z,10.20
2023-05-14T02:47:37.849Z,10.16
2023-05-14T02:49:39.670Z,10.26
2023-05-14T02:51:41.299Z,10.06
2023-05-14T02:53:42.766Z,10.13
2023-05-14T02:55:44.185Z,10.21
2023-05-14T02:57:45.832Z,10.17
2023-05-14T02:59:47.223Z,10.30
2023-05-14T03:01:49.068Z,10.30
2023-05-14T03:03:51.081Z,10.17
2023-05-14T03:05:53.048Z,10.22
2023-05-14T03:07:54.447Z,10.04
2023-05-14T03:09:55.982Z,9.92
2023-05-14T03:11:57.441Z,9.75
2023-05-14T03:13:58.868Z,9.89
2023-05-14T03:16:00.373Z,10.06
2023-05-14T03:18:01.854Z,10.30
2023-05-14T03:20:03.703Z,10.36
2023-05-14T03:22:05.207Z,10.30
2023-05-14T03:24:06.709Z,10.20
2023-05-14T03:26:08.100Z,10.35
2023-05-14T03:28:09.676Z,10.54
2023-05-14T03:30:11.685Z,10.60
2023-05-14T03:32:13.170Z,10.86
2023-05-14T03:34:14.785Z,11.23
2023-05-14T03:36:16.219Z,11.42
2023-05-14T03:38:17.738Z,11.37
2023-05-14T03:40:19.261Z,11.61
2023-05-14T03:42:20.647Z,11.60
2023-05-14T03:44:22.084Z,11.44
2023-05-14T03:46:23.625Z,11.52
2023-05-14T03:48:25.120Z,11.67
2023-05-14T03:50:26.676Z,11.80
2023-05-14T03:52:28.183Z,11.82
2023-05-14T03:54:29.589Z,12.10
2023-05-14T03:56:31.071Z,12.07
2023-05-14T03:58:32.808Z,12.12
2023-05-14T04:00:34.224Z,12.63
2023-05-14T04:02:35.688Z,13.15
2023-05-14T04:04:37.326Z,13.49
2023-05-14T04:06:38.871Z,13.92
2023-05-14T04:08:40.253Z,14.06
2023-05-14T04:10:42.866Z,14.48
2023-05-14T04:12:44.262Z,14.12
2023-05-14T04:14:45.724Z,13.76
2023-05-14T04:16:47.251Z,13.56
2023-05-14T04:18:48.808Z,13.62
2023-05-14T04:20:50.217Z,13.83
2023-05-14T04:22:51.936Z,13.99
2023-05-14T04:24:53.315Z,13.65
2023-05-14T04:26:54.759Z,13.58
2023-05-14T04:28:56.240Z,13.13
2023-05-14T04:30:57.670Z,14.01
2023-05-14T04:32:59.135Z,15.00
2023-05-14T04:35:00.887Z,15.52
2023-05-14T04:37:02.255Z,15.46
2023-05-14T04:39:03.690Z,16.53
2023-05-14T04:41:05.454Z,18.21
2023-05-14T04:43:07.423Z,19.12
2023-05-14T04:45:09.291Z,19.61
2023-05-14T04:47:10.789Z,20.29
2023-05-14T04:49:12.206Z,20.93
2023-05-14T04:51:14.189Z,21.29
2023-05-14T04:53:15.860Z,21.62
2023-05-14T04:55:17.284Z,22.20
2023-05-14T04:57:18.698Z,22.00
2023-05-14T04:59:20.439Z,22.06
2023-05-14T05:01:22.367Z,22.64
2023-05-14T05:03:23.924Z,22.39
2023-05-14T05:05:25.616Z,21.75
2023-05-14T05:07:27.110Z,21.81
2023-05-14T05:09:28.510Z,22.34
2023-05-14T05:11:30.003Z,22.20
2023-05-14T05:13:31.429Z,22.57
2023-05-14T05:15:32.843Z,22.81
2023-05-14T05:17:34.471Z,22.90
2023-05-14T05:19:43.160Z,22.57
2023-05-14T05:21:45.464Z,22.77
2023-05-14T05:23:46.954Z,22.31
2023-05-14T05:25:49.250Z,22.57
2023-05-14T05:27:50.650Z,22.79
2023-05-14T05:29:52.145Z,22.66
2023-05-14T05:31:53.644Z,22.85
2023-05-14T05:33:55.142Z,23.41
2023-05-14T05:35:59.274Z,23.54
2023-05-14T05:38:01.717Z,24.01
2023-05-14T05:40:04.078Z,23.52
2023-05-14T05:42:05.965Z,23.67
2023-05-14T05:44:07.347Z,24.16
2023-05-14T05:46:08.798Z,24.16
2023-05-14T05:48:10.308Z,24.72
2023-05-14T05:50:11.800Z,24.44
2023-05-14T05:52:13.262Z,24.76
2023-05-14T05:54:14.971Z,24.75
2023-05-14T05:56:16.382Z,24.86
2023-05-14T05:58:20.558Z,24.67
2023-05-14T06:00:23.375Z,24.63
2023-05-14T06:02:25.823Z,25.07
2023-05-14T06:04:27.349Z,24.95
2023-05-14T06:06:29.340Z,25.12
2023-05-14T06:08:30.721Z,24.71
2023-05-14T06:10:32.193Z,24.22
2023-05-14T06:12:33.766Z,24.73
2023-05-14T06:14:35.148Z,25.02
2023-05-14T06:16:36.693Z,25.34
2023-05-14T06:18:38.417Z,24.60
2023-05-14T06:20:39.896Z,24.34
2023-05-14T06:22:41.912Z,25.09
2023-05-14T06:24:43.558Z,25.91
2023-05-14T06:26:44.967Z,25.30
2023-05-14T06:28:46.466Z,25.63
2023-05-14T06:30:50.258Z,24.97
2023-05-14T06:32:51.763Z,25.28
2023-05-14T06:34:53.190Z,25.50
2023-05-14T06:36:54.798Z,25.65
2023-05-14T06:38:56.207Z,26.27
2023-05-14T06:40:57.612Z,26.22
2023-05-14T06:42:59.098Z,26.49
2023-05-14T06:45:00.663Z,26.34
2023-05-14T06:47:02.079Z,26.75
2023-05-14T06:49:03.654Z,26.61
2023-05-14T06:51:05.143Z,26.31
2023-05-14T06:53:06.580Z,25.97
2023-05-14T06:55:08.340Z,25.53
2023-05-14T06:57:09.763Z,25.97
2023-05-14T06:59:11.155Z,25.90
2023-05-14T07:01:13.137Z,26.55
2023-05-14T07:03:14.555Z,27.07
2023-05-14T07:05:15.937Z,27.17
2023-05-14T07:07:17.572Z,28.00
2023-05-14T07:09:18.973Z,27.69
2023-05-14T07:11:20.385Z,27.85
2023-05-14T07:13:21.994Z,27.64
2023-05-14T07:15:23.414Z,27.20
2023-05-14T07:17:25.040Z,26.99
2023-05-14T07:19:26.756Z,27.03
2023-05-14T07:21:28.151Z,26.76
2023-05-14T07:23:29.571Z,27.16
2023-05-14T07:25:31.077Z,26.32
2023-05-14T07:27:32.476Z,26.15
2023-05-14T07:29:34.111Z,26.49
2023-05-14T07:31:35.656Z,27.13
2023-05-14T07:33:37.097Z,26.60
2023-05-14T07:35:38.615Z,26.51
2023-05-14T07:37:40.296Z,26.81
2023-05-14T07:39:41.738Z,26.14
2023-05-14T07:41:43.236Z,26.79
2023-05-14T07:43:44.697Z,27.01
2023-05-14T07:45:46.107Z,26.51
2023-05-14T07:47:47.607Z,25.84
2023-05-14T07:49:49.114Z,26.30
2023-05-14T07:51:50.545Z,26.06
2023-05-14T07:53:51.983Z,26.12
2023-05-14T07:55:53.429Z,26.84
2023-05-14T07:57:54.859Z,26.26
2023-05-14T07:59:56.865Z,26.59
2023-05-14T08:01:58.522Z,26.56
2023-05-14T08:04:00.114Z,26.70
2023-05-14T08:06:01.680Z,26.38
2023-05-14T08:08:03.163Z,26.71
2023-05-14T08:10:05.002Z,26.22
2023-05-14T08:12:07.057Z,26.08
2023-05-14T08:14:08.494Z,25.37
2023-05-14T08:16:10.091Z,25.46
2023-05-14T08:18:11.644Z,25.75
2023-05-14T08:20:13.211Z,25.63
2023-05-14T08:22:14.723Z,25.92
2023-05-14T08:24:16.129Z,25.98
2023-05-14T08:26:17.694Z,25.93
2023-05-14T08:28:19.906Z,25.77
2023-05-14T08:30:21.867Z,25.52
2023-05-14T08:32:24.268Z,25.39
2023-05-14T08:34:25.910Z,25.09
2023-05-14T08:36:27.336Z,25.15
2023-05-14T08:38:28.802Z,25.74
2023-05-14T08:40:30.233Z,26.06
2023-05-14T08:42:31.980Z,26.38
2023-05-14T08:44:58.370Z,25.56
2023-05-14T08:47:00.367Z,25.72
2023-05-14T08:49:15.059Z,25.12
2023-05-14T08:51:16.544Z,24.14
2023-05-14T08:53:18.002Z,24.22
2023-05-14T08:55:19.999Z,24.18
2023-05-14T08:57:22.890Z,24.52
2023-05-14T08:59:24.373Z,24.31
2023-05-14T09:01:26.184Z,24.60
2023-05-14T09:03:27.841Z,24.94
2023-05-14T09:05:29.344Z,24.77
2023-05-14T09:07:31.005Z,24.72
2023-05-14T09:09:32.817Z,24.41
2023-05-14T09:11:34.198Z,24.24
2023-05-14T09:13:38.742Z,24.33
2023-05-14T09:15:40.141Z,24.82
2023-05-14T09:17:41.591Z,25.05
2023-05-14T09:19:43.958Z,24.60
2023-05-14T09:21:46.515Z,24.52
2023-05-14T09:23:53.898Z,24.31
2023-05-14T09:25:55.372Z,24.75
2023-05-14T09:27:58.683Z,24.61
2023-05-14T09:30:12.223Z,24.47
2023-05-14T09:32:13.934Z,24.23
2023-05-14T09:34:27.415Z,23.78
2023-05-14T09:36:28.796Z,23.92
2023-05-14T09:38:33.925Z,24.28
2023-05-14T09:40:35.394Z,24.18
2023-05-14T09:42:36.777Z,24.15
2023-05-14T09:44:38.174Z,25.35
2023-05-14T09:46:39.574Z,25.40
2023-05-14T09:48:41.022Z,24.90
2023-05-14T09:50:43.817Z,25.39
2023-05-14T09:52:45.242Z,25.34
2023-05-14T09:54:46.721Z,25.79
2023-05-14T09:56:50.451Z,25.99
2023-05-14T09:58:51.856Z,25.64
2023-05-14T10:00:54.486Z,25.64
2023-05-14T10:02:58.605Z,24.98
2023-05-14T10:05:03.949Z,25.36
2023-05-14T10:07:05.442Z,25.44
2023-05-14T10:09:12.468Z,25.51
2023-05-14T10:11:15.528Z,25.37
2023-05-14T10:13:20.752Z,24.75
2023-05-14T10:15:50.972Z,24.75
2023-05-14T10:17:56.681Z,24.74
2023-05-14T10:19:59.872Z,25.08
2023-05-14T10:22:07.685Z,24.99
2023-05-14T10:24:10.000Z,25.28
2023-05-14T10:26:11.909Z,25.59
2023-05-14T10:28:13.826Z,25.30
2023-05-14T10:30:15.302Z,26.28
2023-05-14T10:32:16.687Z,26.42
2023-05-14T10:34:37.054Z,26.00
2023-05-14T10:36:38.704Z,25.01
2023-05-14T10:38:40.228Z,25.48
2023-05-14T10:40:41.684Z,25.50
2023-05-14T10:42:43.765Z,25.29
2023-05-14T10:44:52.945Z,26.37
2023-05-14T10:46:54.465Z,25.71
2023-05-14T10:48:56.789Z,25.81
2023-05-14T10:50:58.640Z,26.08
2023-05-14T10:53:00.315Z,25.91
2023-05-14T10:55:06.217Z,25.85
2023-05-14T10:57:11.664Z,26.10
2023-05-14T10:59:13.098Z,26.59
2023-05-14T11:01:14.544Z,26.19
2023-05-14T11:03:16.266Z,26.05
2023-05-14T11:05:17.982Z,26.03
2023-05-14T11:07:24.082Z,25.68
2023-05-14T11:09:25.766Z,25.57
2023-05-14T11:11:29.175Z,25.73
2023-05-14T11:13:30.730Z,25.87
2023-05-14T11:15:32.236Z,25.74
2023-05-14T11:17:35.413Z,24.85
2023-05-14T11:19:37.457Z,25.19
2023-05-14T11:21:39.136Z,25.20
2023-05-14T11:23:40.591Z,25.27
2023-05-14T11:25:42.885Z,25.17
2023-05-14T11:27:45.592Z,25.50
2023-05-14T11:29:48.627Z,25.42
2023-05-14T11:31:50.498Z,25.85
2023-05-14T11:33:52.595Z,25.34
2023-05-14T11:35:54.116Z,25.25
2023-05-14T11:37:55.616Z,25.07
2023-05-14T11:40:00.977Z,25.47
2023-05-14T11:42:03.026Z,25.09
2023-05-14T11:44:04.563Z,25.17
2023-05-14T11:46:06.048Z,24.05
2023-05-14T11:48:13.342Z,23.86
2023-05-14T11:50:16.502Z,24.09
2023-05-14T11:52:18.115Z,23.54
2023-05-14T11:54:19.511Z,23.45
2023-05-14T11:56:21.876Z,23.60
2023-05-14T11:58:24.753Z,23.87
2023-05-14T12:00:26.642Z,24.19
2023-05-14T12:02:28.822Z,24.18
2023-05-14T12:04:30.892Z,24.46
2023-05-14T12:06:32.584Z,24.24
2023-05-14T12:08:34.195Z,24.23
2023-05-14T12:10:42.468Z,24.41
2023-05-14T12:12:47.305Z,24.48
2023-05-14T12:14:50.238Z,24.47
2023-05-14T12:16:51.631Z,23.85
2023-05-14T12:18:53.108Z,23.82
2023-05-14T12:20:54.834Z,23.84
2023-05-14T12:22:56.300Z,23.64
2023-05-14T12:24:59.837Z,23.85
2023-05-14T12:27:01.669Z,24.21
2023-05-14T12:29:03.779Z,24.08
2023-05-14T12:31:05.321Z,23.83
2023-05-14T12:33:06.784Z,23.82
2023-05-14T12:35:09.027Z,24.10
2023-05-14T12:37:10.435Z,24.60
2023-05-14T12:39:12.013Z,24.32
2023-05-14T12:41:13.516Z,24.42
2023-05-14T12:43:16.974Z,24.02
2023-05-14T12:45:18.334Z,23.86
2023-05-14T12:47:19.982Z,23.57
2023-05-14T12:49:21.409Z,23.44
2023-05-14T12:51:23.406Z,23.70
2023-05-14T12:53:24.815Z,24.17
2023-05-14T12:55:26.263Z,23.86
2023-05-14T12:57:27.813Z,23.51
2023-05-14T12:59:29.207Z,23.86
2023-05-14T13:01:30.709Z,24.16
2023-05-14T13:03:32.564Z,24.08
2023-05-14T13:05:33.988Z,24.19
2023-05-14T13:07:35.506Z,24.41
2023-05-14T13:09:36.912Z,24.52
2023-05-14T13:11:38.298Z,24.84
2023-05-14T13:13:39.725Z,24.43
2023-05-14T13:15:41.173Z,24.30
2023-05-14T13:17:42.636Z,24.45
2023-05-14T13:19:44.063Z,24.69
2023-05-14T13:21:45.519Z,24.87
2023-05-14T13:23:47.724Z,24.65
2023-05-14T13:25:50.037Z,25.22
2023-05-14T13:27:51.649Z,25.50
2023-05-14T13:29:53.043Z,25.40
2023-05-14T13:31:54.449Z,24.90
2023-05-14T13:33:55.839Z,24.81
2023-05-14T13:35:57.228Z,24.72
2023-05-14T13:37:58.631Z,24.44
2023-05-14T13:40:00.173Z,24.67
2023-05-14T13:42:01.585Z,24.97
2023-05-14T13:44:03.547Z,25.15
2023-05-14T13:46:05.511Z,24.95
2023-05-14T13:48:07.062Z,25.01
2023-05-14T13:50:08.952Z,24.94
2023-05-14T13:52:10.516Z,24.60
2023-05-14T13:54:12.004Z,24.36
2023-05-14T13:56:13.390Z,24.52
2023-05-14T13:58:15.102Z,24.54
2023-05-14T14:00:16.890Z,24.76
2023-05-14T14:02:18.327Z,24.96
2023-05-14T14:04:19.741Z,24.92
2023-05-14T14:06:21.158Z,24.68
2023-05-14T14:08:24.308Z,24.88
2023-05-14T14:10:26.077Z,24.39
2023-05-14T14:12:27.788Z,24.50
2023-05-14T14:14:29.303Z,24.36
2023-05-14T14:16:30.857Z,25.03
2023-05-14T14:18:32.618Z,24.98
2023-05-14T14:20:34.034Z,24.00
2023-05-14T14:22:36.101Z,24.16
2023-05-14T14:24:37.500Z,24.42
2023-05-14T14:26:38.919Z,24.18
2023-05-14T14:28:40.438Z,24.20
2023-05-14T14:30:42.333Z,24.17
2023-05-14T14:32:48.517Z,24.00
2023-05-14T14:34:50.708Z,24.38
2023-05-14T14:36:52.126Z,24.32
2023-05-14T14:38:53.520Z,24.28
2023-05-14T14:40:55.169Z,24.32
2023-05-14T14:42:56.575Z,24.28
2023-05-14T14:44:57.968Z,24.19
2023-05-14T14:46:59.369Z,24.61
2023-05-14T14:49:00.793Z,24.79
2023-05-14T14:51:02.260Z,24.80
2023-05-14T14:53:03.655Z,24.82
2023-05-14T14:55:05.645Z,24.44
2023-05-14T14:57:07.038Z,24.34
2023-05-14T14:59:08.500Z,24.19
2023-05-14T15:01:09.967Z,24.25
2023-05-14T15:03:11.993Z,24.17
2023-05-14T15:05:13.638Z,24.19
2023-05-14T15:07:15.039Z,24.57
2023-05-14T15:09:16.478Z,24.50
2023-05-14T15:11:18.082Z,24.22
2023-05-14T15:13:19.498Z,24.16
2023-05-14T15:15:20.992Z,24.39
2023-05-14T15:17:23.308Z,24.24
2023-05-14T15:19:24.761Z,24.62
2023-05-14T15:21:26.272Z,24.18
2023-05-14T15:23:27.715Z,23.96
2023-05-14T15:25:29.126Z,24.15
2023-05-14T15:27:30.510Z,24.03
2023-05-14T15:29:32.109Z,24.04
2023-05-14T15:31:33.732Z,24.13
2023-05-14T15:33:35.795Z,23.98
2023-05-14T15:35:37.233Z,23.90
2023-05-14T15:37:41.310Z,23.90
2023-05-14T15:39:42.806Z,23.73
2023-05-14T15:41:44.933Z,24.40
2023-05-14T15:43:46.395Z,24.76
2023-05-14T15:45:47.827Z,24.57
2023-05-14T15:47:49.264Z,24.62
2023-05-14T15:49:50.667Z,24.64
2023-05-14T15:51:52.172Z,23.90
2023-05-14T15:53:54.197Z,24.01
2023-05-14T15:55:55.673Z,23.76
2023-05-14T15:57:57.214Z,23.83
2023-05-14T15:59:58.673Z,23.57
2023-05-14T16:02:00.237Z,23.64
2023-05-14T16:04:01.792Z,23.79
2023-05-14T16:06:03.669Z,23.83
2023-05-14T16:08:05.452Z,23.70
2023-05-14T16:10:07.365Z,23.81
2023-05-14T16:12:09.105Z,23.79
2023-05-14T16:14:10.552Z,23.51
2023-05-14T16:16:12.126Z,23.62
2023-05-14T16:18:13.692Z,23.66
2023-05-14T16:20:15.285Z,23.55
2023-05-14T16:22:16.679Z,23.47
2023-05-14T16:24:18.606Z,23.31
2023-05-14T16:26:20.126Z,23.58
2023-05-14T16:28:21.619Z,23.57
2023-05-14T16:30:23.298Z,23.64
2023-05-14T16:32:24.848Z,23.57
2023-05-14T16:34:26.248Z,23.54
2023-05-14T16:36:28.137Z,23.54
2023-05-14T16:38:29.533Z,23.62
2023-05-14T16:40:30.954Z,23.64
2023-05-14T16:42:32.514Z,23.48
2023-05-14T16:44:33.926Z,23.56
2023-05-14T16:46:35.373Z,23.56
2023-05-14T16:48:36.835Z,23.25
2023-05-14T16:50:38.268Z,23.11
2023-05-14T16:52:39.764Z,23.32
2023-05-14T16:54:41.774Z,23.34
2023-05-14T16:56:43.212Z,23.24
2023-05-14T16:58:44.625Z,23.07
2023-05-14T17:00:46.256Z,22.82
2023-05-14T17:02:47.662Z,22.65
2023-05-14T17:04:49.139Z,22.74
2023-05-14T17:06:50.739Z,22.76
2023-05-14T17:08:52.281Z,22.68
2023-05-14T17:10:53.946Z,22.54
2023-05-14T17:12:55.718Z,22.48
2023-05-14T17:14:57.105Z,22.69
2023-05-14T17:16:58.634Z,22.40
2023-05-14T17:19:00.143Z,22.37
2023-05-14T17:21:01.588Z,22.45
2023-05-14T17:23:02.977Z,22.45
2023-05-14T17:25:04.719Z,22.31
2023-05-14T17:27:06.406Z,22.40
2023-05-14T17:29:07.811Z,22.37
2023-05-14T17:31:09.371Z,22.22
2023-05-14T17:33:12.215Z,22.33
2023-05-14T17:35:13.798Z,22.34
2023-05-14T17:37:15.312Z,22.15
2023-05-14T17:39:16.755Z,22.15
2023-05-14T17:41:18.135Z,21.93
2023-05-14T17:43:19.693Z,21.83
2023-05-14T17:45:21.143Z,21.88
2023-05-14T17:47:22.619Z,21.81
2023-05-14T17:49:24.461Z,21.66
2023-05-14T17:51:25.852Z,21.59
2023-05-14T17:53:27.277Z,21.48
2023-05-14T17:55:29.067Z,21.30
2023-05-14T17:57:30.520Z,21.39
2023-05-14T17:59:31.944Z,21.28
2023-05-14T18:01:33.630Z,21.95
2023-05-14T18:03:35.393Z,22.11
2023-05-14T18:05:37.019Z,22.15
2023-05-14T18:07:38.633Z,22.07
2023-05-14T18:09:40.068Z,21.95
2023-05-14T18:11:42.209Z,22.05
2023-05-14T18:13:43.780Z,21.93
2023-05-14T18:15:45.230Z,21.94
2023-05-14T18:17:47.103Z,21.77
2023-05-14T18:19:48.560Z,21.61
2023-05-14T18:21:49.955Z,21.53
2023-05-14T18:23:51.369Z,21.34
2023-05-14T18:25:52.849Z,21.36
2023-05-14T18:27:54.419Z,21.26
2023-05-14T18:29:55.920Z,21.22
2023-05-14T18:31:57.442Z,21.12
2023-05-14T18:33:58.848Z,20.97
2023-05-14T18:36:01.032Z,21.00
2023-05-14T18:38:02.671Z,20.92
2023-05-14T18:40:07.693Z,20.75
2023-05-14T18:42:09.201Z,20.69
2023-05-14T18:44:10.738Z,20.70
2023-05-14T18:46:12.257Z,20.59
2023-05-14T18:48:14.572Z,20.58
2023-05-14T18:50:16.045Z,20.44
2023-05-14T18:52:17.443Z,20.49
2023-05-14T18:54:18.923Z,20.32
2023-05-14T18:56:20.343Z,20.33
2023-05-14T18:58:21.746Z,20.33
2023-05-14T19:00:23.365Z,19.52
2023-05-14T19:02:24.941Z,19.12
2023-05-14T19:04:26.440Z,18.98
2023-05-14T19:06:28.165Z,18.98
2023-05-14T19:08:29.653Z,18.86
2023-05-14T19:10:31.057Z,18.94
2023-05-14T19:12:32.520Z,18.81
2023-05-14T19:14:34.047Z,18.76
2023-05-14T19:16:35.502Z,18.60
2023-05-14T19:18:36.999Z,18.44
2023-05-14T19:20:38.522Z,18.15
2023-05-14T19:22:39.932Z,18.19
2023-05-14T19:24:41.361Z,18.04
2023-05-14T19:26:42.965Z,17.93
2023-05-14T19:28:44.559Z,17.79
2023-05-14T19:30:45.954Z,17.59
2023-05-14T19:32:47.480Z,17.50
2023-05-14T19:34:49.613Z,17.53
2023-05-14T19:36:52.897Z,17.48
2023-05-14T19:38:54.382Z,17.37
2023-05-14T19:40:55.813Z,17.35
2023-05-14T19:42:57.248Z,17.24
2023-05-14T19:44:58.796Z,17.22
2023-05-14T19:47:00.541Z,17.16
2023-05-14T19:49:01.991Z,17.18
2023-05-14T19:51:03.553Z,17.02
2023-05-14T19:53:04.982Z,16.95
2023-05-14T19:55:06.610Z,16.88
2023-05-14T19:57:09.479Z,16.77
2023-05-14T19:59:10.906Z,16.67
2023-05-14T20:01:12.446Z,16.53
2023-05-14T20:03:14.091Z,16.51
2023-05-14T20:05:15.975Z,16.55
2023-05-14T20:07:17.421Z,16.41
2023-05-14T20:09:19.116Z,16.50
2023-05-14T20:11:20.799Z,16.46
2023-05-14T20:13:24.488Z,16.46
2023-05-14T20:15:26.769Z,16.44
2023-05-14T20:17:28.214Z,16.41
2023-05-14T20:19:29.665Z,16.38
2023-05-14T20:21:31.217Z,16.22
2023-05-14T20:23:32.696Z,16.24
2023-05-14T20:25:35.096Z,16.09
2023-05-14T20:27:36.748Z,15.92
2023-05-14T20:29:38.133Z,15.94
2023-05-14T20:31:39.583Z,15.86
2023-05-14T20:33:41.132Z,15.65
2023-05-14T20:35:42.570Z,15.78
2023-05-14T20:37:44.014Z,15.69
2023-05-14T20:39:46.229Z,15.57
2023-05-14T20:41:47.681Z,15.51
2023-05-14T20:43:49.081Z,15.56
2023-05-14T20:45:50.478Z,15.51
2023-05-14T20:47:51.939Z,15.41
2023-05-14T20:49:53.405Z,15.38
2023-05-14T20:51:54.902Z,15.48
2023-05-14T20:53:56.312Z,15.42
2023-05-14T20:55:57.757Z,15.40
2023-05-14T20:57:59.188Z,15.28
2023-05-14T21:00:01.516Z,15.19
2023-05-14T21:02:03.195Z,15.38
2023-05-14T21:04:04.979Z,15.36
2023-05-14T21:06:06.618Z,15.23
2023-05-14T21:08:08.042Z,15.29
2023-05-14T21:10:10.038Z,15.21
2023-05-14T21:12:11.590Z,15.27
2023-05-14T21:14:13.539Z,15.28
2023-05-14T21:16:15.672Z,15.23
2023-05-14T21:18:17.102Z,15.12
2023-05-14T21:20:18.570Z,15.21
2023-05-14T21:22:21.974Z,15.20
2023-05-14T21:24:23.371Z,15.19
2023-05-14T21:26:25.688Z,15.06
2023-05-14T21:28:27.174Z,15.20
2023-05-14T21:30:28.584Z,15.07
2023-05-14T21:32:30.032Z,15.06
2023-05-14T21:34:32.075Z,15.11
2023-05-14T21:36:33.675Z,15.02
2023-05-14T21:38:35.308Z,14.96
2023-05-14T21:40:36.780Z,14.82
2023-05-14T21:42:38.835Z,14.99
2023-05-14T21:44:40.222Z,15.05
2023-05-14T21:46:41.717Z,15.03
2023-05-14T21:48:43.187Z,15.02
2023-05-14T21:50:44.626Z,14.70
2023-05-14T21:52:46.301Z,14.92
2023-05-14T21:54:47.689Z,14.92
2023-05-14T21:56:49.268Z,14.91
2023-05-14T21:58:50.877Z,14.81
2023-05-14T22:00:52.359Z,14.94
2023-05-14T22:02:53.859Z,14.95
2023-05-14T22:04:55.441Z,15.00
2023-05-14T22:06:56.956Z,15.01
2023-05-14T22:08:58.350Z,14.99
2023-05-14T22:11:00.311Z,15.00
2023-05-14T22:13:01.739Z,15.03
2023-05-14T22:15:03.615Z,15.16
2023-05-14T22:17:05.182Z,15.08
2023-05-14T22:19:06.742Z,15.14
2023-05-14T22:21:08.317Z,15.08
2023-05-14T22:23:09.931Z,15.09
2023-05-14T22:25:11.373Z,15.13
2023-05-14T22:27:12.764Z,15.18
2023-05-14T22:29:14.173Z,15.09
2023-05-14T22:31:16.070Z,15.23
2023-05-14T22:33:17.490Z,15.37
2023-05-14T22:35:18.911Z,15.27
2023-05-14T22:37:20.321Z,15.48
2023-05-14T22:39:21.716Z,15.59
2023-05-14T22:41:23.216Z,15.65
2023-05-14T22:43:24.636Z,15.66
2023-05-14T22:45:26.304Z,15.69
2023-05-14T22:47:28.077Z,15.84
2023-05-14T22:49:29.499Z,16.02
2023-05-14T22:51:30.895Z,16.21
2023-05-14T22:53:32.528Z,16.35
2023-05-14T22:55:34.221Z,16.47
2023-05-14T22:57:35.823Z,16.49
2023-05-14T22:59:37.677Z,16.59
2023-05-14T23:01:39.560Z,16.81
2023-05-14T23:03:41.047Z,16.90
2023-05-14T23:05:42.636Z,17.07
2023-05-14T23:07:44.201Z,17.18
2023-05-14T23:09:45.647Z,17.25
2023-05-14T23:11:47.208Z,17.33
2023-05-14T23:13:48.687Z,17.37
2023-05-14T23:15:50.295Z,17.33
2023-05-14T23:17:52.038Z,17.32
2023-05-14T23:19:53.626Z,17.36
2023-05-14T23:21:55.161Z,17.54
2023-05-14T23:23:56.795Z,17.35
2023-05-14T23:25:58.272Z,17.64
2023-05-14T23:27:59.689Z,17.64
2023-05-14T23:30:01.261Z,17.63
2023-05-14T23:32:02.682Z,17.58
2023-05-14T23:34:04.179Z,17.57
2023-05-14T23:36:06.192Z,17.66
2023-05-14T23:38:08.092Z,17.62
2023-05-14T23:40:09.935Z,17.82
2023-05-14T23:42:11.572Z,17.75
2023-05-14T23:44:12.955Z,17.71
2023-05-14T23:46:14.879Z,17.72
2023-05-14T23:48:16.597Z,17.60
2023-05-14T23:50:18.008Z,17.69
2023-05-14T23:52:19.405Z,17.58
2023-05-14T23:54:21.069Z,17.69
2023-05-14T23:56:26.240Z,17.67
2023-05-14T23:58:27.731Z,17.62
